Roanoke — WDD9656 — position and weather

sailwx.info

Track history (hours):
 
Tides and Currents Weather Stations Pressure Air Temp Water Temp Dewpoint Dewpoint Depression Visibility Wind Speed Wind Dir Waves Ship Positions

Roanoke

Owner: Vane Line Bunkering, Baltimore, MD. More information available from US FCC via Universal Licensing System and Coast Guard Vessel Documentation Center.

Last reported at 2017-Jan-20 15:33 UTC. Time now 2017-Jan-20 15:55 UTC.
Position N 39°59' W 075°05'.

Length 32 m; draft 13 m.

Type: Towing. MMSI: 367314510.

Date/timePositionNaut miles runAvg speedWind from/ knotsBaromVisibWave heightAir tempDewpointWater temp
2017-Jan-20 15:33N 39°59' W 075°05'0 0.0
2017-Jan-20 14:34N 39°59' W 075°05'0 0.0
2017-Jan-20 13:33N 39°59' W 075°05'1 0.7
2017-Jan-20 12:34N 39°59' W 075°05'6 5.6
2017-Jan-20 11:33N 39°54' W 075°08'0 0.0
2017-Jan-20 10:33N 39°54' W 075°08'0 0.0
2017-Jan-20 09:33N 39°54' W 075°08'0 0.0
2017-Jan-20 08:34N 39°54' W 075°08'0 0.0
2017-Jan-20 07:34N 39°54' W 075°08'0 0.1
2017-Jan-20 06:33N 39°54' W 075°08'0 0.1
2017-Jan-20 05:33N 39°54' W 075°08'6 5.9
2017-Jan-20 04:33N 39°59' W 075°04'8 7.5
2017-Jan-20 03:33N 40°04' W 074°57'3 3.5
2017-Jan-20 02:34N 40°05' W 074°53'0 0.0
2017-Jan-20 01:33N 40°05' W 074°53'0 0.5
2017-Jan-20 00:34N 40°05' W 074°53'7 7.1
2017-Jan-19 23:34N 40°01' W 075°01'4 3.9
2017-Jan-19 22:33N 39°59' W 075°05'2 1.7
2017-Jan-19 21:33N 39°58' W 075°07'4 4.0
2017-Jan-19 20:34N 39°54' W 075°08'1 0.6
2017-Jan-19 19:34N 39°54' W 075°08'0 0.0
2017-Jan-19 18:34N 39°54' W 075°08'0 0.1
2017-Jan-19 17:34N 39°54' W 075°08'0 0.0
2017-Jan-19 16:34N 39°54' W 075°08'1 1.2
2017-Jan-19 15:34N 39°53' W 075°09'1 1.1
2017-Jan-19 14:34N 39°53' W 075°11'2 2.1
2017-Jan-19 13:33N 39°54' W 075°08'0 0.1
2017-Jan-19 12:33N 39°54' W 075°08'0 0.0
2017-Jan-19 11:33N 39°54' W 075°08'0 0.0
2017-Jan-19 10:33N 39°54' W 075°08'3 3.5
2017-Jan-19 09:33N 39°57' W 075°08'3 3.3
2017-Jan-19 08:34N 39°59' W 075°04'7 7.2
2017-Jan-19 07:34N 39°53' W 075°10'4 4.5
2017-Jan-19 06:34N 39°51' W 075°15'4 3.7
2017-Jan-19 05:33N 39°54' W 075°12'0 0.0
2017-Jan-19 04:34N 39°54' W 075°12'0 0.0
2017-Jan-19 03:33N 39°54' W 075°12'0 0.0
2017-Jan-19 02:34N 39°54' W 075°12'0 0.0
2017-Jan-19 01:34N 39°54' W 075°12'0 0.0
2017-Jan-19 00:34N 39°54' W 075°12'0 0.5
2017-Jan-18 23:34N 39°54' W 075°12'4 3.5
2017-Jan-18 22:33N 39°54' W 075°08'1 0.8
2017-Jan-18 21:34N 39°54' W 075°08'0 0.0
2017-Jan-18 20:34N 39°54' W 075°08'2 2.4
2017-Jan-18 19:34N 39°54' W 075°12'0 0.0
2017-Jan-18 18:34N 39°54' W 075°12'0 0.2
2017-Jan-18 17:34N 39°54' W 075°12'0 0.4
2017-Jan-18 16:34N 39°54' W 075°12'0 0.0
2017-Jan-18 15:34N 39°54' W 075°12'0 0.0
2017-Jan-18 14:33N 39°54' W 075°12'0 0.0
2017-Jan-18 13:34N 39°54' W 075°12'1 0.6
2017-Jan-18 12:33N 39°53' W 075°12'3 3.2
2017-Jan-18 11:33N 39°55' W 075°08'5 4.8
2017-Jan-18 10:34N 39°59' W 075°04'0 0.0
2017-Jan-18 09:33N 39°59' W 075°04'0 0.0
2017-Jan-18 08:34N 39°59' W 075°04'0 0.0
2017-Jan-18 07:34N 39°59' W 075°04'1 0.5
2017-Jan-18 06:34N 39°59' W 075°05'0 0.0
2017-Jan-18 05:34N 39°59' W 075°05'0 0.0
2017-Jan-18 04:34N 39°59' W 075°05'0 0.0
2017-Jan-18 03:34N 39°59' W 075°05'4 3.6
2017-Jan-18 02:33N 39°56' W 075°08'3 2.6
2017-Jan-18 01:34N 39°54' W 075°08'0 0.0
2017-Jan-18 00:33N 39°54' W 075°08'0 0.0
2017-Jan-17 23:33N 39°54' W 075°08'0 0.0
2017-Jan-17 22:34N 39°54' W 075°08'0 0.0
2017-Jan-17 21:34N 39°54' W 075°08'3 2.5
2017-Jan-17 20:34N 39°53' W 075°12'3 2.5
2017-Jan-17 19:34N 39°52' W 075°14'8 7.7
2017-Jan-17 18:33N 39°49' W 075°23'8 8.5
2017-Jan-17 17:33N 39°43' W 075°31'0 0.2
2017-Jan-17 16:34N 39°43' W 075°31'0 0.0
2017-Jan-17 15:33N 39°43' W 075°31'0 0.0
2017-Jan-17 14:34N 39°43' W 075°31'0 0.0
2017-Jan-17 13:34N 39°43' W 075°31'1 0.5
2017-Jan-17 12:33N 39°43' W 075°30'9 9.4
2017-Jan-17 11:34N 39°50' W 075°22'7 7.4
2017-Jan-17 10:34N 39°52' W 075°13'4 4.3
2017-Jan-17 09:34N 39°54' W 075°08'1 0.6
2017-Jan-17 08:34N 39°54' W 075°09'0 0.0
2017-Jan-17 07:34N 39°54' W 075°09'0 0.0
2017-Jan-17 06:34N 39°54' W 075°09'2 2.3
2017-Jan-17 05:34N 39°54' W 075°12'1 0.9
2017-Jan-17 04:34N 39°54' W 075°13'3 3.2
2017-Jan-17 03:33N 39°51' W 075°15'5 5.4
2017-Jan-17 02:33N 39°50' W 075°22'3 2.9
2017-Jan-17 01:33N 39°48' W 075°25'0 0.0
2017-Jan-17 00:33N 39°48' W 075°25'0 0.0
2017-Jan-16 23:33N 39°48' W 075°25'0 0.1
2017-Jan-16 22:33N 39°48' W 075°25'0 0.1
2017-Jan-16 21:34N 39°48' W 075°25'0 0.0
2017-Jan-16 20:34N 39°48' W 075°24'0 0.0
2017-Jan-16 19:34N 39°48' W 075°24'0 0.0
2017-Jan-16 18:33N 39°48' W 075°24'0 0.0
2017-Jan-16 17:33N 39°48' W 075°24'0 0.0
2017-Jan-16 16:33N 39°48' W 075°24'0 0.2
2017-Jan-16 15:34N 39°48' W 075°25'0 0.0
2017-Jan-16 14:32N 39°48' W 075°25'0 0.0
2017-Jan-16 13:34N 39°48' W 075°25'0 0.2
2017-Jan-16 12:33N 39°48' W 075°25'0 0.4
2017-Jan-16 11:34N 39°48' W 075°25'7 6.9
2017-Jan-16 10:34N 39°51' W 075°16'4 4.2
2017-Jan-16 09:33N 39°54' W 075°12'1 1.1
2017-Jan-16 08:34N 39°55' W 075°13'0 0.0
2017-Jan-16 07:33N 39°55' W 075°13'0 0.0
2017-Jan-16 06:34N 39°55' W 075°13'0 0.0
2017-Jan-16 05:34N 39°55' W 075°13'0 0.0
2017-Jan-16 04:34N 39°55' W 075°13'0 0.0
2017-Jan-16 03:34N 39°55' W 075°13'0 0.0
2017-Jan-16 02:34N 39°55' W 075°13'0 0.0
2017-Jan-16 01:34N 39°55' W 075°13'0 0.0
2017-Jan-16 00:34N 39°55' W 075°13'0 0.0
2017-Jan-15 23:34N 39°55' W 075°13'0 0.0
2017-Jan-15 22:34N 39°55' W 075°13'1 0.8
2017-Jan-15 21:33N 39°54' W 075°13'1 0.9
2017-Jan-15 20:33N 39°54' W 075°12'3 3.0
2017-Jan-15 19:34N 39°54' W 075°08'0 0.0
2017-Jan-15 18:34N 39°54' W 075°08'0 0.0
2017-Jan-15 17:34N 39°54' W 075°08'2 2.0
2017-Jan-15 16:33N 39°53' W 075°10'1 1.4
2017-Jan-15 15:34N 39°54' W 075°12'0 0.0
2017-Jan-15 14:34N 39°54' W 075°12'0 0.0
2017-Jan-15 13:34N 39°54' W 075°12'0 0.0
2017-Jan-15 12:33N 39°54' W 075°12'0 0.0
2017-Jan-15 11:33N 39°54' W 075°12'0 0.0
2017-Jan-15 10:33N 39°54' W 075°12'0 0.0
2017-Jan-15 09:33N 39°54' W 075°12'0 0.0
2017-Jan-15 08:33N 39°54' W 075°12'0 0.0
2017-Jan-15 07:34N 39°54' W 075°12'0 0.0
2017-Jan-15 06:34N 39°54' W 075°12'0 0.5
2017-Jan-15 05:34N 39°54' W 075°12'6 6.2
2017-Jan-15 04:34N 39°51' W 075°19'4 4.2
2017-Jan-15 03:34N 39°48' W 075°24'0 0.1
2017-Jan-15 02:33N 39°48' W 075°24'0 0.0
2017-Jan-15 01:33N 39°48' W 075°24'0 0.0
2017-Jan-15 00:34N 39°49' W 075°24'0 0.0
2017-Jan-14 23:34N 39°48' W 075°24'0 0.0
2017-Jan-14 22:34N 39°48' W 075°24'0 0.0
2017-Jan-14 21:34N 39°49' W 075°24'0 0.2
2017-Jan-14 20:33N 39°49' W 075°24'0 0.0
2017-Jan-14 19:33N 39°49' W 075°24'0 0.0
2017-Jan-14 18:34N 39°49' W 075°24'0 0.0
2017-Jan-14 17:34N 39°49' W 075°24'0 0.1
2017-Jan-14 16:33N 39°49' W 075°24'9 8.6
2017-Jan-14 15:34N 39°42' W 075°31'9 9.0
2017-Jan-14 14:34N 39°33' W 075°33'1 1.0
2017-Jan-14 13:34N 39°32' W 075°33'0 0.2
2017-Jan-14 12:34N 39°32' W 075°33'0 0.0
2017-Jan-14 11:33N 39°32' W 075°33'3 2.9
2017-Jan-14 10:33N 39°35' W 075°34'6 5.8
2017-Jan-14 09:33N 39°41' W 075°32'6 6.4
2017-Jan-14 08:33N 39°46' W 075°28'7 6.6
2017-Jan-14 07:33N 39°50' W 075°21'7 6.7
2017-Jan-14 06:33N 39°52' W 075°13'4 3.8
2017-Jan-14 05:33N 39°54' W 075°08'0 0.0
2017-Jan-14 04:33N 39°54' W 075°08'0 0.0
2017-Jan-14 03:33N 39°54' W 075°08'0 0.0
2017-Jan-13 23:33N 39°54' W 075°08'0 0.2
2017-Jan-13 22:33N 39°54' W 075°09'0 0.0
2017-Jan-13 21:33N 39°54' W 075°09'0 0.1
2017-Jan-13 20:33N 39°54' W 075°08'0 0.0
2017-Jan-13 19:33N 39°54' W 075°08'0 0.2
2017-Jan-13 18:33N 39°54' W 075°08'0 0.1
2017-Jan-13 17:33N 39°54' W 075°08'0 0.0
2017-Jan-13 16:33N 39°54' W 075°08'0 0.0
2017-Jan-13 15:33N 39°54' W 075°08'0 0.0
2017-Jan-13 14:33N 39°54' W 075°08'0 0.0
2017-Jan-13 13:33N 39°54' W 075°08'0 0.0
2017-Jan-13 12:33N 39°54' W 075°08'0 0.0
2017-Jan-13 11:33N 39°54' W 075°08'0 0.0
2017-Jan-13 10:33N 39°54' W 075°08'0 0.0
2017-Jan-13 09:33N 39°54' W 075°08'0 0.0
2017-Jan-13 08:33N 39°54' W 075°08'0 0.0
2017-Jan-13 07:33N 39°54' W 075°08'0 0.0
2017-Jan-13 06:33N 39°54' W 075°08'0 0.0
2017-Jan-13 05:33N 39°54' W 075°08'3 2.5
2017-Jan-13 04:33N 39°56' W 075°08'4 4.0
2017-Jan-13 03:33N 39°59' W 075°04'1 0.5
2017-Jan-13 02:33N 39°59' W 075°05'0 0.0
2017-Jan-13 01:33N 39°59' W 075°05'0 0.0
2017-Jan-13 00:33N 39°59' W 075°05'0 0.0
2017-Jan-12 23:33N 39°59' W 075°05'0 0.0
2017-Jan-12 22:33N 39°59' W 075°05'0 0.0
2017-Jan-12 21:33N 39°59' W 075°05'0 0.0
2017-Jan-12 20:33N 39°59' W 075°05'0 0.0
2017-Jan-12 19:33N 39°59' W 075°05'1 1.3
2017-Jan-12 18:33N 39°58' W 075°06'5 4.8
2017-Jan-12 17:33N 39°54' W 075°08'0 0.0
2017-Jan-12 16:33N 39°54' W 075°08'3 2.5
2017-Jan-12 15:33N 39°54' W 075°12'0 0.0
2017-Jan-12 14:33N 39°54' W 075°12'1 0.7
2017-Jan-12 13:33N 39°54' W 075°12'1 0.7
2017-Jan-12 12:33N 39°54' W 075°12'0 0.0
2017-Jan-12 11:33N 39°54' W 075°12'0 0.0
2017-Jan-12 10:33N 39°54' W 075°12'0 0.0
2017-Jan-12 09:33N 39°54' W 075°12'0 0.0
2017-Jan-12 08:33N 39°54' W 075°12'0 0.0
2017-Jan-12 07:33N 39°54' W 075°12'0 0.0
2017-Jan-12 06:33N 39°54' W 075°12'0 0.0
2017-Jan-12 05:33N 39°54' W 075°12'0 0.0
2017-Jan-12 04:33N 39°54' W 075°12'0 0.0
2017-Jan-12 03:33N 39°54' W 075°12'0 0.0
2017-Jan-12 02:33N 39°54' W 075°12'0 0.0
2017-Jan-12 01:33N 39°54' W 075°12'0 0.0
2017-Jan-12 00:33N 39°54' W 075°12'0 0.0
2017-Jan-11 23:33N 39°53' W 075°12'0 0.0
2017-Jan-11 22:33N 39°53' W 075°12'0 0.0
2017-Jan-11 21:33N 39°53' W 075°12'0 0.0
2017-Jan-11 20:33N 39°53' W 075°12'2 2.2
2017-Jan-11 19:33N 39°53' W 075°09'4 3.9
2017-Jan-11 18:33N 39°57' W 075°08'3 3.1
2017-Jan-11 17:33N 39°59' W 075°05'0 0.0
2017-Jan-11 16:33N 39°59' W 075°05'0 0.0
2017-Jan-11 15:33N 39°59' W 075°05'0 0.0
2017-Jan-11 14:33N 39°59' W 075°05'0 0.0
2017-Jan-11 13:33N 39°59' W 075°05'0 0.0
2017-Jan-11 12:33N 39°59' W 075°05'0 0.0
2017-Jan-11 11:33N 39°59' W 075°05'0 0.0
2017-Jan-11 10:33N 39°59' W 075°05'0 0.0
2017-Jan-11 09:33N 39°59' W 075°05'0 0.0
2017-Jan-11 08:33N 39°59' W 075°05'0 0.0
2017-Jan-11 07:33N 39°59' W 075°05'0 0.0
2017-Jan-11 06:33N 39°59' W 075°05'0 0.0
2017-Jan-11 05:33N 39°59' W 075°05'0 0.0
2017-Jan-11 04:33N 39°59' W 075°05'2 1.7
2017-Jan-11 03:33N 39°58' W 075°07'6 6.2
2017-Jan-11 02:33N 39°53' W 075°11'3 3.5
2017-Jan-11 01:33N 39°51' W 075°15'4 3.7
2017-Jan-11 00:33N 39°54' W 075°12'0 0.0
2017-Jan-10 23:33N 39°54' W 075°12'0 0.0
2017-Jan-10 22:33N 39°54' W 075°12'0 0.0
2017-Jan-10 21:33N 39°54' W 075°12'0 0.0
2017-Jan-10 20:33N 39°54' W 075°12'1 0.6
2017-Jan-10 19:33N 39°54' W 075°12'1 0.6
2017-Jan-10 18:33N 39°54' W 075°12'0 0.0
2017-Jan-10 17:33N 39°54' W 075°12'3 2.7
2017-Jan-10 16:33N 39°51' W 075°14'2 1.6
2017-Jan-10 15:33N 39°52' W 075°12'  
Track history (hours):
 
Tides and Currents Weather Stations Pressure Air Temp Water Temp Dewpoint Dewpoint Depression Visibility Wind Speed Wind Dir Waves Ship Positions

Roanoke

Owner: Vane Line Bunkering, Baltimore, MD. More information available from US FCC via Universal Licensing System and Coast Guard Vessel Documentation Center.

Last reported at 2017-Jan-20 15:33 UTC. Time now 2017-Jan-20 15:55 UTC.
Position N 39°59' W 075°05'.

Length 32 m; draft 13 m.

Type: Towing. MMSI: 367314510.

Date/timePositionNaut miles runAvg speedWind from/ knotsBaromVisibWave heightAir tempDewpointWater temp
2017-Jan-20 15:33N 39°59' W 075°05'0 0.0
2017-Jan-20 14:34N 39°59' W 075°05'0 0.0
2017-Jan-20 13:33N 39°59' W 075°05'1 0.7
2017-Jan-20 12:34N 39°59' W 075°05'6 5.6
2017-Jan-20 11:33N 39°54' W 075°08'0 0.0
2017-Jan-20 10:33N 39°54' W 075°08'0 0.0
2017-Jan-20 09:33N 39°54' W 075°08'0 0.0
2017-Jan-20 08:34N 39°54' W 075°08'0 0.0
2017-Jan-20 07:34N 39°54' W 075°08'0 0.1
2017-Jan-20 06:33N 39°54' W 075°08'0 0.1
2017-Jan-20 05:33N 39°54' W 075°08'6 5.9
2017-Jan-20 04:33N 39°59' W 075°04'8 7.5
2017-Jan-20 03:33N 40°04' W 074°57'3 3.5
2017-Jan-20 02:34N 40°05' W 074°53'0 0.0
2017-Jan-20 01:33N 40°05' W 074°53'0 0.5
2017-Jan-20 00:34N 40°05' W 074°53'7 7.1
2017-Jan-19 23:34N 40°01' W 075°01'4 3.9
2017-Jan-19 22:33N 39°59' W 075°05'2 1.7
2017-Jan-19 21:33N 39°58' W 075°07'4 4.0
2017-Jan-19 20:34N 39°54' W 075°08'1 0.6
2017-Jan-19 19:34N 39°54' W 075°08'0 0.0
2017-Jan-19 18:34N 39°54' W 075°08'0 0.1
2017-Jan-19 17:34N 39°54' W 075°08'0 0.0
2017-Jan-19 16:34N 39°54' W 075°08'1 1.2
2017-Jan-19 15:34N 39°53' W 075°09'1 1.1
2017-Jan-19 14:34N 39°53' W 075°11'2 2.1
2017-Jan-19 13:33N 39°54' W 075°08'0 0.1
2017-Jan-19 12:33N 39°54' W 075°08'0 0.0
2017-Jan-19 11:33N 39°54' W 075°08'0 0.0
2017-Jan-19 10:33N 39°54' W 075°08'3 3.5
2017-Jan-19 09:33N 39°57' W 075°08'3 3.3
2017-Jan-19 08:34N 39°59' W 075°04'7 7.2
2017-Jan-19 07:34N 39°53' W 075°10'4 4.5
2017-Jan-19 06:34N 39°51' W 075°15'4 3.7
2017-Jan-19 05:33N 39°54' W 075°12'0 0.0
2017-Jan-19 04:34N 39°54' W 075°12'0 0.0
2017-Jan-19 03:33N 39°54' W 075°12'0 0.0
2017-Jan-19 02:34N 39°54' W 075°12'0 0.0
2017-Jan-19 01:34N 39°54' W 075°12'0 0.0
2017-Jan-19 00:34N 39°54' W 075°12'0 0.5
2017-Jan-18 23:34N 39°54' W 075°12'4 3.5
2017-Jan-18 22:33N 39°54' W 075°08'1 0.8
2017-Jan-18 21:34N 39°54' W 075°08'0 0.0
2017-Jan-18 20:34N 39°54' W 075°08'2 2.4
2017-Jan-18 19:34N 39°54' W 075°12'0 0.0
2017-Jan-18 18:34N 39°54' W 075°12'0 0.2
2017-Jan-18 17:34N 39°54' W 075°12'0 0.4
2017-Jan-18 16:34N 39°54' W 075°12'0 0.0
2017-Jan-18 15:34N 39°54' W 075°12'0 0.0
2017-Jan-18 14:33N 39°54' W 075°12'0 0.0
2017-Jan-18 13:34N 39°54' W 075°12'1 0.6
2017-Jan-18 12:33N 39°53' W 075°12'3 3.2
2017-Jan-18 11:33N 39°55' W 075°08'5 4.8
2017-Jan-18 10:34N 39°59' W 075°04'0 0.0
2017-Jan-18 09:33N 39°59' W 075°04'0 0.0
2017-Jan-18 08:34N 39°59' W 075°04'0 0.0
2017-Jan-18 07:34N 39°59' W 075°04'1 0.5
2017-Jan-18 06:34N 39°59' W 075°05'0 0.0
2017-Jan-18 05:34N 39°59' W 075°05'0 0.0
2017-Jan-18 04:34N 39°59' W 075°05'0 0.0
2017-Jan-18 03:34N 39°59' W 075°05'4 3.6
2017-Jan-18 02:33N 39°56' W 075°08'3 2.6
2017-Jan-18 01:34N 39°54' W 075°08'0 0.0
2017-Jan-18 00:33N 39°54' W 075°08'0 0.0
2017-Jan-17 23:33N 39°54' W 075°08'0 0.0
2017-Jan-17 22:34N 39°54' W 075°08'0 0.0
2017-Jan-17 21:34N 39°54' W 075°08'3 2.5
2017-Jan-17 20:34N 39°53' W 075°12'3 2.5
2017-Jan-17 19:34N 39°52' W 075°14'8 7.7
2017-Jan-17 18:33N 39°49' W 075°23'8 8.5
2017-Jan-17 17:33N 39°43' W 075°31'0 0.2
2017-Jan-17 16:34N 39°43' W 075°31'0 0.0
2017-Jan-17 15:33N 39°43' W 075°31'0 0.0
2017-Jan-17 14:34N 39°43' W 075°31'0 0.0
2017-Jan-17 13:34N 39°43' W 075°31'1 0.5
2017-Jan-17 12:33N 39°43' W 075°30'9 9.4
2017-Jan-17 11:34N 39°50' W 075°22'7 7.4
2017-Jan-17 10:34N 39°52' W 075°13'4 4.3
2017-Jan-17 09:34N 39°54' W 075°08'1 0.6
2017-Jan-17 08:34N 39°54' W 075°09'0 0.0
2017-Jan-17 07:34N 39°54' W 075°09'0 0.0
2017-Jan-17 06:34N 39°54' W 075°09'2 2.3
2017-Jan-17 05:34N 39°54' W 075°12'1 0.9
2017-Jan-17 04:34N 39°54' W 075°13'3 3.2
2017-Jan-17 03:33N 39°51' W 075°15'5 5.4
2017-Jan-17 02:33N 39°50' W 075°22'3 2.9
2017-Jan-17 01:33N 39°48' W 075°25'0 0.0
2017-Jan-17 00:33N 39°48' W 075°25'0 0.0
2017-Jan-16 23:33N 39°48' W 075°25'0 0.1
2017-Jan-16 22:33N 39°48' W 075°25'0 0.1
2017-Jan-16 21:34N 39°48' W 075°25'0 0.0
2017-Jan-16 20:34N 39°48' W 075°24'0 0.0
2017-Jan-16 19:34N 39°48' W 075°24'0 0.0
2017-Jan-16 18:33N 39°48' W 075°24'0 0.0
2017-Jan-16 17:33N 39°48' W 075°24'0 0.0
2017-Jan-16 16:33N 39°48' W 075°24'0 0.2
2017-Jan-16 15:34N 39°48' W 075°25'0 0.0
2017-Jan-16 14:32N 39°48' W 075°25'0 0.0
2017-Jan-16 13:34N 39°48' W 075°25'0 0.2
2017-Jan-16 12:33N 39°48' W 075°25'0 0.4
2017-Jan-16 11:34N 39°48' W 075°25'7 6.9
2017-Jan-16 10:34N 39°51' W 075°16'4 4.2
2017-Jan-16 09:33N 39°54' W 075°12'1 1.1
2017-Jan-16 08:34N 39°55' W 075°13'0 0.0
2017-Jan-16 07:33N 39°55' W 075°13'0 0.0
2017-Jan-16 06:34N 39°55' W 075°13'0 0.0
2017-Jan-16 05:34N 39°55' W 075°13'0 0.0
2017-Jan-16 04:34N 39°55' W 075°13'0 0.0
2017-Jan-16 03:34N 39°55' W 075°13'0 0.0
2017-Jan-16 02:34N 39°55' W 075°13'0 0.0
2017-Jan-16 01:34N 39°55' W 075°13'0 0.0
2017-Jan-16 00:34N 39°55' W 075°13'0 0.0
2017-Jan-15 23:34N 39°55' W 075°13'0 0.0
2017-Jan-15 22:34N 39°55' W 075°13'1 0.8
2017-Jan-15 21:33N 39°54' W 075°13'1 0.9
2017-Jan-15 20:33N 39°54' W 075°12'3 3.0
2017-Jan-15 19:34N 39°54' W 075°08'0 0.0
2017-Jan-15 18:34N 39°54' W 075°08'0 0.0
2017-Jan-15 17:34N 39°54' W 075°08'2 2.0
2017-Jan-15 16:33N 39°53' W 075°10'1 1.4
2017-Jan-15 15:34N 39°54' W 075°12'0 0.0
2017-Jan-15 14:34N 39°54' W 075°12'0 0.0
2017-Jan-15 13:34N 39°54' W 075°12'0 0.0
2017-Jan-15 12:33N 39°54' W 075°12'0 0.0
2017-Jan-15 11:33N 39°54' W 075°12'0 0.0
2017-Jan-15 10:33N 39°54' W 075°12'0 0.0
2017-Jan-15 09:33N 39°54' W 075°12'0 0.0
2017-Jan-15 08:33N 39°54' W 075°12'0 0.0
2017-Jan-15 07:34N 39°54' W 075°12'0 0.0
2017-Jan-15 06:34N 39°54' W 075°12'0 0.5
2017-Jan-15 05:34N 39°54' W 075°12'6 6.2
2017-Jan-15 04:34N 39°51' W 075°19'4 4.2
2017-Jan-15 03:34N 39°48' W 075°24'0 0.1
2017-Jan-15 02:33N 39°48' W 075°24'0 0.0
2017-Jan-15 01:33N 39°48' W 075°24'0 0.0
2017-Jan-15 00:34N 39°49' W 075°24'0 0.0
2017-Jan-14 23:34N 39°48' W 075°24'0 0.0
2017-Jan-14 22:34N 39°48' W 075°24'0 0.0
2017-Jan-14 21:34N 39°49' W 075°24'0 0.2
2017-Jan-14 20:33N 39°49' W 075°24'0 0.0
2017-Jan-14 19:33N 39°49' W 075°24'0 0.0
2017-Jan-14 18:34N 39°49' W 075°24'0 0.0
2017-Jan-14 17:34N 39°49' W 075°24'0 0.1
2017-Jan-14 16:33N 39°49' W 075°24'9 8.6
2017-Jan-14 15:34N 39°42' W 075°31'9 9.0
2017-Jan-14 14:34N 39°33' W 075°33'1 1.0
2017-Jan-14 13:34N 39°32' W 075°33'0 0.2
2017-Jan-14 12:34N 39°32' W 075°33'0 0.0
2017-Jan-14 11:33N 39°32' W 075°33'3 2.9
2017-Jan-14 10:33N 39°35' W 075°34'6 5.8
2017-Jan-14 09:33N 39°41' W 075°32'6 6.4
2017-Jan-14 08:33N 39°46' W 075°28'7 6.6
2017-Jan-14 07:33N 39°50' W 075°21'7 6.7
2017-Jan-14 06:33N 39°52' W 075°13'4 3.8
2017-Jan-14 05:33N 39°54' W 075°08'0 0.0
2017-Jan-14 04:33N 39°54' W 075°08'0 0.0
2017-Jan-14 03:33N 39°54' W 075°08'0 0.0
2017-Jan-13 23:33N 39°54' W 075°08'0 0.2
2017-Jan-13 22:33N 39°54' W 075°09'0 0.0
2017-Jan-13 21:33N 39°54' W 075°09'0 0.1
2017-Jan-13 20:33N 39°54' W 075°08'0 0.0
2017-Jan-13 19:33N 39°54' W 075°08'0 0.2
2017-Jan-13 18:33N 39°54' W 075°08'0 0.1
2017-Jan-13 17:33N 39°54' W 075°08'0 0.0
2017-Jan-13 16:33N 39°54' W 075°08'0 0.0
2017-Jan-13 15:33N 39°54' W 075°08'0 0.0
2017-Jan-13 14:33N 39°54' W 075°08'0 0.0
2017-Jan-13 13:33N 39°54' W 075°08'0 0.0
2017-Jan-13 12:33N 39°54' W 075°08'0 0.0
2017-Jan-13 11:33N 39°54' W 075°08'0 0.0
2017-Jan-13 10:33N 39°54' W 075°08'0 0.0
2017-Jan-13 09:33N 39°54' W 075°08'0 0.0
2017-Jan-13 08:33N 39°54' W 075°08'0 0.0
2017-Jan-13 07:33N 39°54' W 075°08'0 0.0
2017-Jan-13 06:33N 39°54' W 075°08'0 0.0
2017-Jan-13 05:33N 39°54' W 075°08'3 2.5
2017-Jan-13 04:33N 39°56' W 075°08'4 4.0
2017-Jan-13 03:33N 39°59' W 075°04'1 0.5
2017-Jan-13 02:33N 39°59' W 075°05'0 0.0
2017-Jan-13 01:33N 39°59' W 075°05'0 0.0
2017-Jan-13 00:33N 39°59' W 075°05'0 0.0
2017-Jan-12 23:33N 39°59' W 075°05'0 0.0
2017-Jan-12 22:33N 39°59' W 075°05'0 0.0
2017-Jan-12 21:33N 39°59' W 075°05'0 0.0
2017-Jan-12 20:33N 39°59' W 075°05'0 0.0
2017-Jan-12 19:33N 39°59' W 075°05'1 1.3
2017-Jan-12 18:33N 39°58' W 075°06'5 4.8
2017-Jan-12 17:33N 39°54' W 075°08'0 0.0
2017-Jan-12 16:33N 39°54' W 075°08'3 2.5
2017-Jan-12 15:33N 39°54' W 075°12'0 0.0
2017-Jan-12 14:33N 39°54' W 075°12'1 0.7
2017-Jan-12 13:33N 39°54' W 075°12'1 0.7
2017-Jan-12 12:33N 39°54' W 075°12'0 0.0
2017-Jan-12 11:33N 39°54' W 075°12'0 0.0
2017-Jan-12 10:33N 39°54' W 075°12'0 0.0
2017-Jan-12 09:33N 39°54' W 075°12'0 0.0
2017-Jan-12 08:33N 39°54' W 075°12'0 0.0
2017-Jan-12 07:33N 39°54' W 075°12'0 0.0
2017-Jan-12 06:33N 39°54' W 075°12'0 0.0
2017-Jan-12 05:33N 39°54' W 075°12'0 0.0
2017-Jan-12 04:33N 39°54' W 075°12'0 0.0
2017-Jan-12 03:33N 39°54' W 075°12'0 0.0
2017-Jan-12 02:33N 39°54' W 075°12'0 0.0
2017-Jan-12 01:33N 39°54' W 075°12'0 0.0
2017-Jan-12 00:33N 39°54' W 075°12'0 0.0
2017-Jan-11 23:33N 39°53' W 075°12'0 0.0
2017-Jan-11 22:33N 39°53' W 075°12'0 0.0
2017-Jan-11 21:33N 39°53' W 075°12'0 0.0
2017-Jan-11 20:33N 39°53' W 075°12'2 2.2
2017-Jan-11 19:33N 39°53' W 075°09'4 3.9
2017-Jan-11 18:33N 39°57' W 075°08'3 3.1
2017-Jan-11 17:33N 39°59' W 075°05'0 0.0
2017-Jan-11 16:33N 39°59' W 075°05'0 0.0
2017-Jan-11 15:33N 39°59' W 075°05'0 0.0
2017-Jan-11 14:33N 39°59' W 075°05'0 0.0
2017-Jan-11 13:33N 39°59' W 075°05'0 0.0
2017-Jan-11 12:33N 39°59' W 075°05'0 0.0
2017-Jan-11 11:33N 39°59' W 075°05'0 0.0
2017-Jan-11 10:33N 39°59' W 075°05'0 0.0
2017-Jan-11 09:33N 39°59' W 075°05'0 0.0
2017-Jan-11 08:33N 39°59' W 075°05'0 0.0
2017-Jan-11 07:33N 39°59' W 075°05'0 0.0
2017-Jan-11 06:33N 39°59' W 075°05'0 0.0
2017-Jan-11 05:33N 39°59' W 075°05'0 0.0
2017-Jan-11 04:33N 39°59' W 075°05'2 1.7
2017-Jan-11 03:33N 39°58' W 075°07'6 6.2
2017-Jan-11 02:33N 39°53' W 075°11'3 3.5
2017-Jan-11 01:33N 39°51' W 075°15'4 3.7
2017-Jan-11 00:33N 39°54' W 075°12'0 0.0
2017-Jan-10 23:33N 39°54' W 075°12'0 0.0
2017-Jan-10 22:33N 39°54' W 075°12'0 0.0
2017-Jan-10 21:33N 39°54' W 075°12'0 0.0
2017-Jan-10 20:33N 39°54' W 075°12'1 0.6
2017-Jan-10 19:33N 39°54' W 075°12'1 0.6
2017-Jan-10 18:33N 39°54' W 075°12'0 0.0
2017-Jan-10 17:33N 39°54' W 075°12'3 2.7
2017-Jan-10 16:33N 39°51' W 075°14'2 1.6
2017-Jan-10 15:33N 39°52' W 075°12'  

Dump ship's entire track history